Carteret, New Jersey
Current Conditions -  °F | °C
As of 5:35 AM on Sunday 26 Oct 2014 (Local Time) from KLDJ Reporting Station
Scattered Clouds Scattered Clouds  
Wind Chill: 61°   Ceiling: Unl
Heat Index: 61°   Visibility: 10mi
Dew Point: 44°   Wind: 12mph
Humidity: 54%   Direction: 340°NNW
Pressure: 29.62"   Gusts: NA
Location:  40.58°N, 74.22°W
Report Text: KLDJ 260935Z AUTO 34010KT 10SM SCT065 16/07 A2962 RMK AO2 T01590067
Loading
Personal Weather Stations






























Interactive Weather Map
Tropical Storm Tracking
New forecast layout! Learn more

10-Day Weather Forecast

Advertisements
Track Severe Weather on mobile